createdAt,value
2022-10-05T00:00:26.937Z,10.20
2022-10-05T00:02:55.142Z,9.45
2022-10-05T00:05:32.173Z,10.25
2022-10-05T00:08:24.236Z,10.40
2022-10-05T00:10:51.857Z,10.40
2022-10-05T00:13:25.220Z,9.82
2022-10-05T00:18:26.910Z,10.38
2022-10-05T00:20:54.141Z,10.65
2022-10-05T00:23:31.930Z,10.43
2022-10-05T00:26:16.159Z,10.23
2022-10-05T00:28:43.534Z,11.00
2022-10-05T00:31:19.914Z,9.90
2022-10-05T00:33:48.037Z,10.35
2022-10-05T00:36:15.005Z,9.95
2022-10-05T00:38:43.478Z,10.60
2022-10-05T00:41:20.538Z,10.32
2022-10-05T00:44:25.026Z,10.23
2022-10-05T00:47:11.306Z,11.60
2022-10-05T00:50:28.210Z,10.98
2022-10-05T00:53:25.294Z,11.45
2022-10-05T00:56:17.902Z,11.13
2022-10-05T00:59:25.401Z,11.13
2022-10-05T01:02:12.744Z,11.38
2022-10-05T01:04:51.691Z,11.48
2022-10-05T01:07:50.407Z,12.05
2022-10-05T01:10:45.952Z,11.57
2022-10-05T01:13:28.568Z,11.45
2022-10-05T01:16:20.993Z,11.68
2022-10-05T01:19:09.057Z,12.13
2022-10-05T01:21:47.564Z,10.80
2022-10-05T01:24:21.021Z,11.63
2022-10-05T01:27:29.032Z,12.13
2022-10-05T01:30:14.768Z,11.73
2022-10-05T01:33:05.868Z,11.45
2022-10-05T01:35:49.636Z,11.73
2022-10-05T01:38:28.385Z,12.73
2022-10-05T01:41:03.157Z,12.85
2022-10-05T01:43:49.609Z,13.77
2022-10-05T01:46:35.869Z,12.23
2022-10-05T01:49:41.217Z,12.40
2022-10-05T01:52:26.437Z,12.15
2022-10-05T01:55:11.814Z,13.15
2022-10-05T01:57:45.938Z,13.15
2022-10-05T02:00:16.577Z,14.88
2022-10-05T02:02:50.865Z,13.38
2022-10-05T02:05:40.934Z,14.15
2022-10-05T02:08:16.666Z,13.13
2022-10-05T02:10:55.710Z,13.75
2022-10-05T02:14:11.902Z,13.45
2022-10-05T02:16:46.219Z,13.80
2022-10-05T02:19:35.990Z,13.82
2022-10-05T02:22:36.547Z,14.32
2022-10-05T02:25:14.063Z,13.60
2022-10-05T02:27:55.341Z,13.55
2022-10-05T02:30:22.361Z,15.18
2022-10-05T02:33:02.851Z,13.57
2022-10-05T02:35:29.607Z,14.43
2022-10-05T02:38:01.511Z,13.02
2022-10-05T02:40:51.399Z,13.77
2022-10-05T02:43:42.945Z,14.43
2022-10-05T02:46:36.529Z,14.63
2022-10-05T02:49:20.408Z,13.07
2022-10-05T02:52:04.036Z,13.90
2022-10-05T02:54:55.060Z,14.85
2022-10-05T02:57:32.136Z,13.30
2022-10-05T03:00:09.673Z,12.95
2022-10-05T03:02:39.828Z,13.30
2022-10-05T03:05:33.816Z,12.80
2022-10-05T03:08:18.388Z,12.93
2022-10-05T03:11:34.768Z,12.38
2022-10-05T03:14:12.916Z,11.50
2022-10-05T03:16:45.802Z,11.50
2022-10-05T03:19:44.145Z,11.60
2022-10-05T03:22:40.671Z,10.80
2022-10-05T03:25:30.621Z,11.60
2022-10-05T03:28:04.157Z,10.75
2022-10-05T03:30:41.901Z,11.55
2022-10-05T03:33:23.054Z,11.32
2022-10-05T03:35:57.590Z,11.52
2022-10-05T03:38:31.862Z,11.27
2022-10-05T03:41:32.330Z,11.18
2022-10-05T03:43:59.614Z,10.85
2022-10-05T03:47:01.959Z,10.18
2022-10-05T03:49:58.250Z,10.83
2022-10-05T03:53:05.063Z,11.38
2022-10-05T03:56:05.238Z,10.30
2022-10-05T03:58:57.586Z,10.38
2022-10-05T04:01:43.052Z,10.55
2022-10-05T04:04:18.995Z,9.95
2022-10-05T04:06:49.542Z,10.50
2022-10-05T04:09:26.568Z,10.55
2022-10-05T04:12:18.939Z,10.57
2022-10-05T04:15:03.191Z,10.90
2022-10-05T04:17:42.494Z,11.05
2022-10-05T04:20:24.668Z,11.30
2022-10-05T04:23:14.956Z,11.77
2022-10-05T04:25:53.724Z,11.57
2022-10-05T04:28:38.223Z,12.38
2022-10-05T04:33:33.660Z,12.70
2022-10-05T04:36:24.548Z,12.77
2022-10-05T04:39:17.057Z,12.40
2022-10-05T04:41:56.110Z,12.65
2022-10-05T04:44:37.078Z,12.50
2022-10-05T04:47:33.353Z,12.95
2022-10-05T04:50:23.866Z,11.80
2022-10-05T04:53:18.857Z,11.55
2022-10-05T04:56:19.853Z,13.30
2022-10-05T04:58:53.505Z,13.27
2022-10-05T05:04:06.934Z,12.65
2022-10-05T05:06:44.089Z,13.50
2022-10-05T05:09:40.526Z,12.98
2022-10-05T05:12:19.439Z,12.60
2022-10-05T05:15:12.359Z,12.77
2022-10-05T05:18:12.991Z,12.55
2022-10-05T05:20:51.691Z,12.25
2022-10-05T05:23:40.094Z,12.32
2022-10-05T05:26:17.127Z,12.88
2022-10-05T05:29:09.005Z,13.15
2022-10-05T05:31:49.663Z,12.65
2022-10-05T05:34:55.020Z,13.85
2022-10-05T05:37:41.307Z,13.75
2022-10-05T05:40:31.941Z,13.77
2022-10-05T05:43:26.486Z,14.20
2022-10-05T05:46:03.324Z,14.27
2022-10-05T05:48:47.425Z,14.73
2022-10-05T05:51:27.601Z,14.80
2022-10-05T05:54:20.725Z,13.98
2022-10-05T05:57:00.280Z,14.60
2022-10-05T05:59:51.902Z,13.65
2022-10-05T06:02:25.011Z,13.43
2022-10-05T06:05:03.349Z,12.55
2022-10-05T06:07:31.751Z,13.73
2022-10-05T06:10:04.459Z,12.80
2022-10-05T06:12:50.481Z,12.93
2022-10-05T06:15:40.181Z,12.60
2022-10-05T06:18:13.782Z,12.65
2022-10-05T06:20:51.954Z,11.75
2022-10-05T06:23:35.269Z,12.68
2022-10-05T06:26:20.112Z,12.23
2022-10-05T06:29:05.806Z,11.75
2022-10-05T06:32:01.668Z,12.45
2022-10-05T06:34:58.328Z,11.90
2022-10-05T06:37:46.180Z,12.32
2022-10-05T06:40:41.714Z,11.65
2022-10-05T06:43:47.151Z,12.00
2022-10-05T06:46:56.392Z,11.02
2022-10-05T06:50:15.816Z,10.45
2022-10-05T06:53:20.186Z,10.57
2022-10-05T06:56:08.735Z,10.73
2022-10-05T06:58:57.264Z,10.23
2022-10-05T07:01:41.655Z,10.15
2022-10-05T07:04:24.473Z,10.55
2022-10-05T07:06:54.643Z,10.30
2022-10-05T07:09:22.471Z,11.10
2022-10-05T07:11:55.282Z,11.25
2022-10-05T07:14:46.679Z,11.07
2022-10-05T07:17:45.820Z,10.85
2022-10-05T07:20:32.076Z,10.07
2022-10-05T07:23:21.260Z,10.57
2022-10-05T07:26:06.774Z,10.82
2022-10-05T07:29:12.951Z,10.32
2022-10-05T07:31:52.913Z,10.40
2022-10-05T07:34:40.073Z,10.40
2022-10-05T07:37:41.129Z,10.95
2022-10-05T07:40:40.861Z,10.10
2022-10-05T07:44:00.984Z,9.25
2022-10-05T07:46:57.296Z,8.98
2022-10-05T07:49:32.453Z,9.02
2022-10-05T07:52:05.017Z,9.65
2022-10-05T07:54:47.716Z,8.73
2022-10-05T07:57:28.487Z,6.35
2022-10-05T08:00:05.254Z,9.27
2022-10-05T08:02:50.978Z,8.65
2022-10-05T08:05:37.431Z,8.82
2022-10-05T08:08:19.788Z,8.82
2022-10-05T08:11:06.192Z,8.30
2022-10-05T08:14:10.726Z,8.60
2022-10-05T08:16:38.517Z,8.40
2022-10-05T08:19:14.011Z,8.73
2022-10-05T08:21:55.884Z,8.15
2022-10-05T08:24:23.112Z,7.85
2022-10-05T08:27:21.997Z,8.00
2022-10-05T08:29:54.428Z,7.50
2022-10-05T08:32:50.240Z,7.93
2022-10-05T08:35:36.355Z,7.50
2022-10-05T08:38:09.454Z,7.28
2022-10-05T08:41:05.035Z,6.82
2022-10-05T08:43:35.176Z,7.13
2022-10-05T08:46:11.801Z,7.20
2022-10-05T08:49:04.749Z,6.90
2022-10-05T08:51:49.814Z,6.28
2022-10-05T08:54:43.763Z,6.18
2022-10-05T08:57:39.202Z,6.25
2022-10-05T09:00:15.928Z,5.90
2022-10-05T09:03:20.689Z,6.20
2022-10-05T09:06:18.305Z,5.68
2022-10-05T09:08:51.174Z,5.70
2022-10-05T09:11:25.521Z,5.82
2022-10-05T09:14:11.205Z,5.13
2022-10-05T09:17:00.157Z,5.90
2022-10-05T09:19:48.697Z,4.93
2022-10-05T09:22:16.633Z,5.53
2022-10-05T09:25:02.027Z,5.03
2022-10-05T09:27:39.106Z,5.40
2022-10-05T09:30:45.246Z,4.03
2022-10-05T09:33:33.773Z,3.85
2022-10-05T09:36:31.752Z,3.22
2022-10-05T09:39:16.810Z,3.15
2022-10-05T09:42:21.143Z,3.20
2022-10-05T09:45:25.430Z,2.40
2022-10-05T09:48:04.315Z,2.55
2022-10-05T09:50:43.211Z,2.47
2022-10-05T09:53:46.967Z,2.22
2022-10-05T09:59:36.988Z,2.13
2022-10-05T10:02:28.098Z,2.20
2022-10-05T10:05:16.791Z,2.40
2022-10-05T10:07:50.077Z,2.10
2022-10-05T10:10:44.813Z,2.22
2022-10-05T10:13:56.368Z,2.30
2022-10-05T10:16:36.273Z,2.30
2022-10-05T10:19:21.821Z,1.75
2022-10-05T10:22:00.885Z,1.77
2022-10-05T10:24:41.831Z,2.22
2022-10-05T10:27:51.620Z,2.15
2022-10-05T10:30:56.847Z,2.00
2022-10-05T10:33:44.359Z,1.60
2022-10-05T10:36:33.247Z,1.70
2022-10-05T10:39:21.910Z,2.05
2022-10-05T10:42:07.274Z,1.73
2022-10-05T10:44:52.997Z,1.90
2022-10-05T10:47:40.772Z,1.88
2022-10-05T10:50:39.971Z,1.90
2022-10-05T10:53:17.109Z,1.90
2022-10-05T10:56:18.084Z,1.50
2022-10-05T10:59:09.524Z,1.48
2022-10-05T11:02:15.181Z,1.95
2022-10-05T11:05:01.837Z,1.67
2022-10-05T11:08:17.003Z,1.70
2022-10-05T11:11:12.632Z,1.85
2022-10-05T11:14:16.798Z,1.52
2022-10-05T11:17:21.807Z,1.60
2022-10-05T11:20:19.904Z,1.80
2022-10-05T11:22:58.647Z,2.00
2022-10-05T11:25:53.377Z,1.85
2022-10-05T11:28:48.337Z,2.28
2022-10-05T11:31:54.738Z,1.50
2022-10-05T11:34:31.837Z,1.60
2022-10-05T11:37:40.193Z,1.80
2022-10-05T11:40:38.753Z,1.88
2022-10-05T11:43:37.820Z,1.70
2022-10-05T11:46:20.575Z,1.52
2022-10-05T11:49:00.361Z,1.83
2022-10-05T11:51:36.581Z,1.73
2022-10-05T11:54:23.721Z,1.60
2022-10-05T11:56:58.945Z,1.60
2022-10-05T11:59:43.457Z,1.60
2022-10-05T12:02:25.371Z,1.55
2022-10-05T12:05:03.515Z,1.37
2022-10-05T12:07:39.850Z,1.40
2022-10-05T12:10:32.950Z,1.35
2022-10-05T12:13:14.735Z,1.40
2022-10-05T12:16:06.892Z,1.63
2022-10-05T12:18:33.991Z,1.30
2022-10-05T12:21:15.318Z,1.50
2022-10-05T12:23:59.785Z,1.38
2022-10-05T12:26:49.257Z,1.33
2022-10-05T12:29:26.320Z,1.38
2022-10-05T12:32:04.402Z,1.35
2022-10-05T12:34:48.972Z,1.10
2022-10-05T12:37:40.595Z,1.13
2022-10-05T12:40:31.297Z,1.48
2022-10-05T12:43:11.188Z,1.05
2022-10-05T12:45:49.560Z,1.38
2022-10-05T12:48:25.055Z,1.55
2022-10-05T12:51:16.853Z,1.15
2022-10-05T12:53:57.389Z,1.30
2022-10-05T12:56:42.836Z,1.60
2022-10-05T12:59:24.626Z,1.52
2022-10-05T13:02:19.496Z,1.50
2022-10-05T13:05:22.035Z,1.30
2022-10-05T13:08:17.802Z,1.50
2022-10-05T13:11:12.741Z,1.02
2022-10-05T13:13:52.922Z,1.30
2022-10-05T13:16:54.792Z,1.38
2022-10-05T13:19:36.723Z,1.23
2022-10-05T13:22:34.118Z,1.00
2022-10-05T13:25:19.506Z,0.98
2022-10-05T13:28:08.609Z,1.17
2022-10-05T13:30:37.185Z,1.20
2022-10-05T13:33:22.982Z,1.20
2022-10-05T13:36:07.141Z,1.40
2022-10-05T13:38:48.846Z,1.27
2022-10-05T13:41:50.715Z,1.48
2022-10-05T13:44:17.263Z,1.25
2022-10-05T13:47:13.784Z,1.20
2022-10-05T13:49:58.425Z,1.10
2022-10-05T13:52:45.548Z,1.80
2022-10-05T13:55:37.094Z,1.45
2022-10-05T13:58:23.552Z,1.38
2022-10-05T14:00:55.036Z,1.05
2022-10-05T14:03:33.104Z,1.00
2022-10-05T14:06:03.824Z,1.10
2022-10-05T14:08:46.093Z,1.20
2022-10-05T14:11:31.473Z,1.38
2022-10-05T14:14:10.541Z,1.30
2022-10-05T14:16:53.589Z,1.40
2022-10-05T14:19:27.778Z,1.20
2022-10-05T14:22:11.521Z,0.90
2022-10-05T14:25:02.569Z,1.02
2022-10-05T14:27:50.117Z,1.75
2022-10-05T14:30:23.987Z,1.50
2022-10-05T14:32:52.578Z,1.58
2022-10-05T14:35:25.567Z,1.77
2022-10-05T14:38:09.475Z,1.50
2022-10-05T14:40:38.396Z,1.42
2022-10-05T14:43:13.962Z,1.55
2022-10-05T14:46:02.868Z,1.52
2022-10-05T14:48:41.010Z,1.60
2022-10-05T14:51:24.375Z,2.45
2022-10-05T14:56:49.692Z,3.22
2022-10-05T14:59:41.143Z,1.77
2022-10-05T15:02:36.619Z,1.60
2022-10-05T15:05:48.095Z,1.90
2022-10-05T15:08:45.070Z,1.65
2022-10-05T15:11:31.573Z,1.75
2022-10-05T15:13:58.661Z,1.90
2022-10-05T15:16:34.458Z,1.50
2022-10-05T15:19:22.444Z,2.88
2022-10-05T15:22:18.899Z,1.77
2022-10-05T15:25:14.066Z,1.85
2022-10-05T15:28:07.820Z,1.75
2022-10-05T15:30:40.206Z,1.63
2022-10-05T15:33:27.792Z,1.67
2022-10-05T15:36:08.358Z,1.52
2022-10-05T15:39:03.557Z,2.17
2022-10-05T15:41:53.145Z,1.67
2022-10-05T15:44:29.021Z,1.98
2022-10-05T15:47:03.625Z,1.80
2022-10-05T15:49:45.845Z,2.05
2022-10-05T15:52:44.070Z,1.70
2022-10-05T15:55:35.379Z,2.03
2022-10-05T15:58:31.237Z,2.00
2022-10-05T16:01:13.439Z,1.75
2022-10-05T16:03:51.107Z,2.25
2022-10-05T16:07:05.526Z,1.90
2022-10-05T16:09:46.879Z,1.45
2022-10-05T16:12:25.570Z,1.70
2022-10-05T16:15:19.010Z,1.98
2022-10-05T16:17:51.749Z,2.22
2022-10-05T16:20:22.054Z,2.00
2022-10-05T16:23:21.238Z,2.10
2022-10-05T16:26:21.324Z,2.40
2022-10-05T16:29:23.804Z,2.53
2022-10-05T16:32:06.346Z,1.75
2022-10-05T16:34:49.204Z,2.40
2022-10-05T16:37:38.616Z,2.40
2022-10-05T16:40:19.430Z,2.45
2022-10-05T16:43:10.824Z,2.20
2022-10-05T16:45:52.262Z,2.45
2022-10-05T16:48:27.019Z,2.92
2022-10-05T16:50:56.979Z,2.00
2022-10-05T16:53:37.025Z,2.15
2022-10-05T16:56:10.966Z,2.60
2022-10-05T16:59:11.773Z,2.38
2022-10-05T17:01:45.691Z,2.35
2022-10-05T17:04:13.135Z,1.90
2022-10-05T17:06:54.249Z,1.80
2022-10-05T17:09:52.287Z,2.00
2022-10-05T17:12:37.857Z,2.15
2022-10-05T17:15:29.302Z,2.50
2022-10-05T17:18:16.430Z,2.15
2022-10-05T17:20:51.151Z,1.90
2022-10-05T17:23:30.110Z,2.03
2022-10-05T17:26:08.330Z,2.13
2022-10-05T17:28:59.733Z,2.55
2022-10-05T17:31:31.255Z,2.03
2022-10-05T17:34:26.349Z,2.25
2022-10-05T17:36:58.610Z,2.33
2022-10-05T17:39:52.032Z,2.38
2022-10-05T17:45:14.918Z,2.53
2022-10-05T17:48:09.874Z,2.55
2022-10-05T17:50:58.937Z,1.77
2022-10-05T17:54:05.752Z,1.80
2022-10-05T17:56:47.456Z,1.90
2022-10-05T17:59:38.792Z,2.33
2022-10-05T18:02:23.239Z,2.20
2022-10-05T18:05:01.490Z,2.10
2022-10-05T18:07:28.964Z,1.95
2022-10-05T18:10:17.108Z,2.30
2022-10-05T18:13:11.354Z,2.55
2022-10-05T18:15:45.269Z,1.98
2022-10-05T18:18:48.465Z,2.17
2022-10-05T18:23:51.481Z,2.08
2022-10-05T18:26:47.532Z,2.00
2022-10-05T18:29:53.818Z,2.30
2022-10-05T18:32:46.529Z,2.40
2022-10-05T18:35:46.768Z,2.50
2022-10-05T18:38:43.638Z,2.42
2022-10-05T18:41:31.801Z,2.05
2022-10-05T18:44:11.949Z,2.13
2022-10-05T18:47:02.526Z,2.67
2022-10-05T18:49:56.978Z,2.25
2022-10-05T18:53:14.798Z,2.63
2022-10-05T18:55:53.775Z,2.30
2022-10-05T18:58:31.758Z,2.10
2022-10-05T19:01:17.794Z,2.78
2022-10-05T19:04:22.111Z,2.30
2022-10-05T19:07:18.846Z,2.00
2022-10-05T19:10:02.977Z,3.00
2022-10-05T19:12:32.999Z,2.88
2022-10-05T19:15:13.394Z,2.05
2022-10-05T19:17:43.667Z,2.40
2022-10-05T19:20:19.578Z,2.25
2022-10-05T19:23:19.371Z,2.10
2022-10-05T19:25:55.219Z,2.25
2022-10-05T19:28:33.651Z,2.17
2022-10-05T19:31:12.649Z,2.05
2022-10-05T19:34:00.204Z,2.15
2022-10-05T19:36:32.233Z,2.20
2022-10-05T19:39:10.772Z,2.13
2022-10-05T19:41:59.461Z,2.13
2022-10-05T19:44:38.350Z,2.10
2022-10-05T19:47:24.193Z,2.20
2022-10-05T19:49:55.190Z,2.22
2022-10-05T19:52:25.262Z,2.25
2022-10-05T19:55:15.246Z,2.33
2022-10-05T19:57:58.021Z,2.10
2022-10-05T20:00:35.378Z,2.10
2022-10-05T20:03:27.785Z,2.10
2022-10-05T20:05:59.470Z,2.60
2022-10-05T20:08:36.341Z,2.22
2022-10-05T20:11:21.918Z,2.33
2022-10-05T20:13:58.317Z,2.70
2022-10-05T20:19:49.545Z,2.55
2022-10-05T20:22:37.931Z,1.90
2022-10-05T20:25:24.841Z,2.55
2022-10-05T20:27:55.327Z,2.30
2022-10-05T20:30:27.390Z,2.35
2022-10-05T20:33:04.450Z,2.22
2022-10-05T20:35:31.079Z,2.38
2022-10-05T20:38:01.690Z,2.47
2022-10-05T20:40:29.934Z,2.53
2022-10-05T20:42:58.170Z,2.20
2022-10-05T20:45:25.014Z,2.08
2022-10-05T20:47:52.251Z,2.40
2022-10-05T20:50:20.370Z,2.42
2022-10-05T20:52:47.134Z,2.42
2022-10-05T20:55:13.839Z,2.30
2022-10-05T20:57:43.216Z,2.25
2022-10-05T21:00:11.782Z,2.28
2022-10-05T21:02:39.318Z,2.50
2022-10-05T21:05:06.343Z,2.17
2022-10-05T21:07:34.427Z,2.53
2022-10-05T21:10:03.546Z,2.50
2022-10-05T21:12:30.621Z,2.47
2022-10-05T21:14:59.091Z,2.90
2022-10-05T21:17:26.054Z,2.50
2022-10-05T21:19:52.693Z,2.97
2022-10-05T21:22:19.331Z,2.78
2022-10-05T21:24:46.046Z,3.88
2022-10-05T21:27:13.343Z,4.03
2022-10-05T21:29:41.166Z,2.60
2022-10-05T21:32:11.860Z,2.53
2022-10-05T21:34:39.403Z,2.85
2022-10-05T21:37:07.033Z,2.20
2022-10-05T21:39:34.952Z,2.28
2022-10-05T21:42:02.273Z,2.05
2022-10-05T21:44:28.872Z,1.80
2022-10-05T21:46:56.798Z,1.65
2022-10-05T21:49:24.841Z,1.80
2022-10-05T21:51:52.137Z,1.63
2022-10-05T21:54:21.046Z,1.52
2022-10-05T21:56:51.664Z,1.70
2022-10-05T21:59:21.260Z,1.65
2022-10-05T22:01:48.544Z,1.55
2022-10-05T22:04:15.238Z,1.33
2022-10-05T22:06:42.511Z,1.42
2022-10-05T22:09:09.389Z,1.50
2022-10-05T22:11:36.839Z,1.42
2022-10-05T22:14:03.882Z,1.42
2022-10-05T22:16:34.543Z,1.55
2022-10-05T22:19:06.784Z,1.50
2022-10-05T22:21:38.345Z,1.30
2022-10-05T22:24:05.330Z,1.50
2022-10-05T22:26:33.341Z,1.45
2022-10-05T22:29:01.588Z,1.73
2022-10-05T22:31:28.947Z,1.17
2022-10-05T22:33:55.682Z,1.52
2022-10-05T22:36:23.170Z,1.63
2022-10-05T22:38:49.792Z,1.33
2022-10-05T22:41:18.575Z,1.65
2022-10-05T22:43:48.556Z,2.17
2022-10-05T22:46:16.423Z,0.98
2022-10-05T22:48:43.243Z,1.40
2022-10-05T22:51:10.623Z,0.85
2022-10-05T22:53:37.703Z,0.90
2022-10-05T22:56:12.573Z,1.08
2022-10-05T22:58:40.839Z,0.85
2022-10-05T23:01:11.327Z,0.70
2022-10-05T23:03:38.031Z,1.00
2022-10-05T23:06:14.651Z,0.82
2022-10-05T23:08:42.531Z,1.13
2022-10-05T23:11:18.283Z,0.73
2022-10-05T23:13:45.093Z,0.77
2022-10-05T23:16:15.380Z,1.00
2022-10-05T23:18:42.520Z,1.15
2022-10-05T23:21:10.733Z,1.23
2022-10-05T23:23:41.855Z,1.10
2022-10-05T23:26:11.333Z,1.05
2022-10-05T23:28:40.317Z,1.27
2022-10-05T23:31:08.742Z,0.85
2022-10-05T23:33:35.620Z,1.00
2022-10-05T23:36:18.523Z,1.15
2022-10-05T23:38:45.242Z,1.10
2022-10-05T23:41:13.664Z,1.08
2022-10-05T23:43:40.384Z,1.08
2022-10-05T23:46:08.994Z,1.40
2022-10-05T23:48:39.054Z,0.93
2022-10-05T23:51:08.249Z,1.85
2022-10-05T23:53:34.944Z,1.02
2022-10-05T23:56:02.421Z,1.30
2022-10-05T23:58:29.864Z,1.38
